Arklow Raider — EIXS — position and weather

sailwx.info

Track history (hours):
 
Tides and Currents Weather Stations Pressure Air Temp Water Temp Dewpoint Dewpoint Depression Visibility Wind Speed Wind Dir Waves Ship Positions

Arklow Raider

Last reported at 2017-Feb-26 05:31 UTC. Time now 2017-Feb-26 10:29 UTC.
Position N 50°29' W 001°20'.

Length 90 m; draft 6.2 m.

Type: Ship. MMSI: 250001268.

Date/timePositionNaut miles runAvg speedWind from/ knotsBaromVisibWave heightAir tempDewpointWater temp
2017-Feb-26 05:31N 50°29' W 001°20'2210.7
2017-Feb-26 03:28N 50°30' W 000°46'1112.1
2017-Feb-26 02:34N 50°31' W 000°29'1312.3
2017-Feb-26 01:30N 50°32' W 000°08'1111.3
2017-Feb-26 00:31N 50°33' E 000°09'1310.7
2017-Feb-25 23:18N 50°37' E 000°29'710.2
2017-Feb-25 22:33N 50°40' E 000°40'10 9.8
2017-Feb-25 21:33N 50°46' E 000°53'1010.0
2017-Feb-25 20:32N 50°52' E 001°05'1010.4
2017-Feb-25 19:34N 50°59' E 001°17'1110.5
2017-Feb-25 18:34N 51°05' E 001°30'1010.2
2017-Feb-25 17:34N 51°12' E 001°42'9 9.1
2017-Feb-25 16:34N 51°19' E 001°51'8 7.9
2017-Feb-25 15:33N 51°25' E 002°00'8 8.5
2017-Feb-25 14:33N 51°22' E 002°13'8 7.8
2017-Feb-25 13:33N 51°22' E 002°26'8 8.3
2017-Feb-25 12:34N 51°23' E 002°39'8 8.4
2017-Feb-25 11:34N 51°22' E 002°52'9 9.1
2017-Feb-25 10:33N 51°22' E 003°07'9 9.3
2017-Feb-25 09:33N 51°24' E 003°21'9 9.5
2017-Feb-25 08:34N 51°26' E 003°36'10 9.9
2017-Feb-25 07:33N 51°20' E 003°49'0 0.4
2017-Feb-25 06:33N 51°20' E 003°49'4 3.7
2017-Feb-25 05:34N 51°16' E 003°50'6 6.1
2017-Feb-25 04:34N 51°10' E 003°48'5 5.3
2017-Feb-25 03:34N 51°05' E 003°44'0 0.0
2017-Feb-25 02:33N 51°05' E 003°44'0 0.0
2017-Feb-25 01:34N 51°05' E 003°44'0 0.0
2017-Feb-25 00:33N 51°05' E 003°44'0 0.0
2017-Feb-24 23:33N 51°05' E 003°44'0 0.0
2017-Feb-24 22:32N 51°05' E 003°44'0 0.0
2017-Feb-24 21:33N 51°05' E 003°44'0 0.0
2017-Feb-24 20:34N 51°05' E 003°44'0 0.0
2017-Feb-24 19:33N 51°05' E 003°44'0 0.0
2017-Feb-24 18:33N 51°05' E 003°44'0 0.0
2017-Feb-24 17:33N 51°05' E 003°44'0 0.0
2017-Feb-24 16:33N 51°05' E 003°44'0 0.0
2017-Feb-24 15:34N 51°05' E 003°44'0 0.0
2017-Feb-24 14:33N 51°05' E 003°44'0 0.0
2017-Feb-24 13:33N 51°05' E 003°44'0 0.0
2017-Feb-24 12:33N 51°05' E 003°44'0 0.3
2017-Feb-24 11:33N 51°05' E 003°44'0 0.0
2017-Feb-24 10:33N 51°05' E 003°44'0 0.0
2017-Feb-24 09:34N 51°05' E 003°44'0 0.0
2017-Feb-24 08:33N 51°05' E 003°44'0 0.0
2017-Feb-24 07:33N 51°05' E 003°44'0 0.0
2017-Feb-24 06:33N 51°05' E 003°44'0 0.0
2017-Feb-24 05:33N 51°05' E 003°44'0 0.0
2017-Feb-24 04:33N 51°05' E 003°44'0 0.0
2017-Feb-24 03:34N 51°05' E 003°44'0 0.0
2017-Feb-24 02:33N 51°05' E 003°44'0 0.0
2017-Feb-24 01:33N 51°05' E 003°44'0 0.0
2017-Feb-24 00:34N 51°05' E 003°44'0 0.0
2017-Feb-23 23:34N 51°05' E 003°44'0 0.0
2017-Feb-23 22:34N 51°05' E 003°44'0 0.0
2017-Feb-23 21:34N 51°05' E 003°44'0 0.0
2017-Feb-23 20:34N 51°05' E 003°44'0 0.0
2017-Feb-23 19:34N 51°05' E 003°44'0 0.0
2017-Feb-23 18:33N 51°05' E 003°44'0 0.0
2017-Feb-23 17:34N 51°05' E 003°44'0 0.0
2017-Feb-23 16:33N 51°05' E 003°44'0 0.0
2017-Feb-23 15:33N 51°05' E 003°44'0 0.0
2017-Feb-23 14:33N 51°05' E 003°44'0 0.0
2017-Feb-23 13:33N 51°05' E 003°44'0 0.0
2017-Feb-23 12:34N 51°05' E 003°44'0 0.0
2017-Feb-23 11:33N 51°05' E 003°44'0 0.0
2017-Feb-23 10:33N 51°05' E 003°44'0 0.0
2017-Feb-23 09:34N 51°05' E 003°44'0 0.0
2017-Feb-23 08:33N 51°05' E 003°44'0 0.0
2017-Feb-23 07:34N 51°05' E 003°44'0 0.0
2017-Feb-23 06:33N 51°05' E 003°44'0 0.0
2017-Feb-23 05:33N 51°05' E 003°44'0 0.0
2017-Feb-23 04:33N 51°05' E 003°44'0 0.0
2017-Feb-23 03:33N 51°05' E 003°44'0 0.0
2017-Feb-23 02:33N 51°05' E 003°44'0 0.0
2017-Feb-23 01:34N 51°05' E 003°44'0 0.0
2017-Feb-23 00:33N 51°05' E 003°44'0 0.0
2017-Feb-22 23:33N 51°05' E 003°44'0 0.0
2017-Feb-22 22:33N 51°05' E 003°44'0 0.0
2017-Feb-22 21:34N 51°05' E 003°44'0 0.0
2017-Feb-22 20:34N 51°05' E 003°44'0 0.0
2017-Feb-22 19:34N 51°05' E 003°44'0 0.0
2017-Feb-22 18:33N 51°05' E 003°44'0 0.0
2017-Feb-22 17:33N 51°05' E 003°44'0 0.0
2017-Feb-22 16:33N 51°05' E 003°44'0 0.0
2017-Feb-22 15:34N 51°05' E 003°44'0 0.0
2017-Feb-22 14:34N 51°05' E 003°44'0 0.0
2017-Feb-22 13:33N 51°05' E 003°44'0 0.0
2017-Feb-22 12:34N 51°05' E 003°44'0 0.0
2017-Feb-22 11:34N 51°05' E 003°44'0 0.0
2017-Feb-22 10:34N 51°05' E 003°44'0 0.0
2017-Feb-22 09:34N 51°05' E 003°44'0 0.0
2017-Feb-22 08:34N 51°05' E 003°44'0 0.0
2017-Feb-22 07:33N 51°05' E 003°44'0 0.0
2017-Feb-22 06:34N 51°05' E 003°44'0 0.0
2017-Feb-22 05:34N 51°05' E 003°44'0 0.0
2017-Feb-22 04:33N 51°05' E 003°44'0 0.0
2017-Feb-22 03:34N 51°05' E 003°44'0 0.0
2017-Feb-22 02:34N 51°05' E 003°44'0 0.0
2017-Feb-22 01:34N 51°05' E 003°44'0 0.0
2017-Feb-22 00:34N 51°05' E 003°44'0 0.0
2017-Feb-21 23:33N 51°05' E 003°44'0 0.0
2017-Feb-21 22:30N 51°05' E 003°44'1 0.7
2017-Feb-21 21:33N 51°06' E 003°44'1 0.8
2017-Feb-21 20:32N 51°05' E 003°45'0 0.0
2017-Feb-21 19:29N 51°05' E 003°45'0 0.0
2017-Feb-21 18:32N 51°05' E 003°45'0 0.0
2017-Feb-21 17:29N 51°05' E 003°45'0 0.0
2017-Feb-21 16:29N 51°05' E 003°45'0 0.0
2017-Feb-21 15:29N 51°05' E 003°45'0 0.0
2017-Feb-21 14:32N 51°05' E 003°45'0 0.0
2017-Feb-21 13:29N 51°05' E 003°45'0 0.0
2017-Feb-21 12:29N 51°05' E 003°45'0 0.0
2017-Feb-21 11:32N 51°05' E 003°45'0 0.0
2017-Feb-21 10:32N 51°05' E 003°45'0 0.0
2017-Feb-21 09:32N 51°05' E 003°45'0 0.0
2017-Feb-21 08:32N 51°05' E 003°45'0 0.0
2017-Feb-21 07:32N 51°05' E 003°45'0 0.0
2017-Feb-21 06:29N 51°05' E 003°45'0 0.0
2017-Feb-21 05:29N 51°05' E 003°45'0 0.0
2017-Feb-21 04:29N 51°05' E 003°45'0 0.4
2017-Feb-21 03:31N 51°06' E 003°45'0 0.0
2017-Feb-21 02:31N 51°06' E 003°45'0 0.0
2017-Feb-21 01:28N 51°06' E 003°45'0 0.0
2017-Feb-21 00:31N 51°06' E 003°45'0 0.0
2017-Feb-20 23:31N 51°06' E 003°45'0 0.0
2017-Feb-20 22:31N 51°06' E 003°45'0 0.0
2017-Feb-20 21:22N 51°06' E 003°45'0 0.0
2017-Feb-20 20:31N 51°06' E 003°45'0 0.0
2017-Feb-20 19:31N 51°06' E 003°45'0 0.0
2017-Feb-20 18:25N 51°06' E 003°45'0 0.0
2017-Feb-20 17:31N 51°06' E 003°45'0 0.0
2017-Feb-20 16:31N 51°06' E 003°45'0 0.0
2017-Feb-20 15:28N 51°06' E 003°45'0 0.0
2017-Feb-20 14:31N 51°06' E 003°45'0 0.0
2017-Feb-20 13:28N 51°06' E 003°45'0 0.0
2017-Feb-20 12:31N 51°06' E 003°45'0 0.0
2017-Feb-20 11:25N 51°06' E 003°45'0 0.0
2017-Feb-20 10:31N 51°06' E 003°45'0 0.0
2017-Feb-20 09:31N 51°06' E 003°45'0 0.0
2017-Feb-20 08:31N 51°06' E 003°45'0 0.0
2017-Feb-20 07:31N 51°06' E 003°45'0 0.0
2017-Feb-20 06:28N 51°06' E 003°45'0 0.0
2017-Feb-20 05:28N 51°06' E 003°45'0 0.0
2017-Feb-20 04:28N 51°06' E 003°45'0 0.0
2017-Feb-20 03:25N 51°06' E 003°45'0 0.0
2017-Feb-20 02:28N 51°06' E 003°45'0 0.0
2017-Feb-20 01:28N 51°06' E 003°45'0 0.0
2017-Feb-20 00:28N 51°06' E 003°45'0 0.0
2017-Feb-19 23:28N 51°06' E 003°45'0 0.0
2017-Feb-19 22:31N 51°06' E 003°45'0 0.0
2017-Feb-19 21:31N 51°06' E 003°45'0 0.0
2017-Feb-19 20:31N 51°06' E 003°45'0 0.0
2017-Feb-19 19:31N 51°06' E 003°45'0 0.0
2017-Feb-19 18:31N 51°06' E 003°45'0 0.0
2017-Feb-19 17:31N 51°06' E 003°45'0 0.0
2017-Feb-19 16:31N 51°06' E 003°45'0 0.0
2017-Feb-19 15:31N 51°06' E 003°45'0 0.0
2017-Feb-19 14:28N 51°06' E 003°45'0 0.0
2017-Feb-19 13:25N 51°06' E 003°45'0 0.0
2017-Feb-19 12:28N 51°06' E 003°45'0 0.0
2017-Feb-19 11:28N 51°06' E 003°45'0 0.0
2017-Feb-19 10:28N 51°06' E 003°45'0 0.0
2017-Feb-19 09:28N 51°06' E 003°45'0 0.0
2017-Feb-19 08:28N 51°06' E 003°45'0 0.0
2017-Feb-19 07:28N 51°06' E 003°45'0 0.0
2017-Feb-19 06:31N 51°06' E 003°45'0 0.0
2017-Feb-19 05:31N 51°06' E 003°45'0 0.0
2017-Feb-19 04:31N 51°06' E 003°45'0 0.0
2017-Feb-19 03:31N 51°06' E 003°45'0 0.0
2017-Feb-19 02:31N 51°06' E 003°45'0 0.0
2017-Feb-19 01:28N 51°06' E 003°45'0 0.0
2017-Feb-19 00:31N 51°06' E 003°45'0 0.0
2017-Feb-18 23:31N 51°06' E 003°45'0 0.0
2017-Feb-18 22:31N 51°06' E 003°45'0 0.0
2017-Feb-18 21:28N 51°06' E 003°45'0 0.0
2017-Feb-18 20:28N 51°06' E 003°45'0 0.0
2017-Feb-18 19:31N 51°06' E 003°45'0 0.0
2017-Feb-18 18:31N 51°06' E 003°45'0 0.0
2017-Feb-18 17:31N 51°06' E 003°45'4 3.9
2017-Feb-18 16:33N 51°09' E 003°47'8 8.1
2017-Feb-18 15:33N 51°17' E 003°50'3 2.7
2017-Feb-18 14:33N 51°20' E 003°49'6 6.0
2017-Feb-18 13:34N 51°24' E 003°42'5 4.6
2017-Feb-18 12:30N 51°25' E 003°34'0 0.0
2017-Feb-18 11:30N 51°25' E 003°34'0 0.0
2017-Feb-18 10:24N 51°25' E 003°34'0 0.0
2017-Feb-18 09:30N 51°25' E 003°34'0 0.0
2017-Feb-18 08:30N 51°25' E 003°34'0 0.1
2017-Feb-18 07:33N 51°25' E 003°34'9 8.6
2017-Feb-18 06:34N 51°24' E 003°21'1211.9
2017-Feb-18 05:33N 51°22' E 003°02'1211.5
2017-Feb-18 04:33N 51°22' E 002°43'6 5.8
2017-Feb-18 03:32N 51°20' E 002°34'0 0.1
2017-Feb-18 02:20N 51°20' E 002°34'0 0.0
2017-Feb-18 01:32N 51°20' E 002°34'0 0.1
2017-Feb-18 00:27N 51°20' E 002°34'5 6.0
2017-Feb-17 23:33N 51°21' E 002°25'7 6.8
2017-Feb-17 22:33N 51°18' E 002°16'8 7.5
2017-Feb-17 21:33N 51°21' E 002°04'10 9.7
2017-Feb-17 20:33N 51°26' E 001°51'10 9.9
2017-Feb-17 19:34N 51°29' E 001°36'1211.5
2017-Feb-17 18:29N 51°29' E 001°16'1212.7
2017-Feb-17 17:32N 51°29' E 000°57'9 9.4
2017-Feb-17 16:33N 51°25' E 000°43'  
Track history (hours):
 
Tides and Currents Weather Stations Pressure Air Temp Water Temp Dewpoint Dewpoint Depression Visibility Wind Speed Wind Dir Waves Ship Positions

Arklow Raider

Last reported at 2017-Feb-26 05:31 UTC. Time now 2017-Feb-26 10:29 UTC.
Position N 50°29' W 001°20'.

Length 90 m; draft 6.2 m.

Type: Ship. MMSI: 250001268.

Date/timePositionNaut miles runAvg speedWind from/ knotsBaromVisibWave heightAir tempDewpointWater temp
2017-Feb-26 05:31N 50°29' W 001°20'2210.7
2017-Feb-26 03:28N 50°30' W 000°46'1112.1
2017-Feb-26 02:34N 50°31' W 000°29'1312.3
2017-Feb-26 01:30N 50°32' W 000°08'1111.3
2017-Feb-26 00:31N 50°33' E 000°09'1310.7
2017-Feb-25 23:18N 50°37' E 000°29'710.2
2017-Feb-25 22:33N 50°40' E 000°40'10 9.8
2017-Feb-25 21:33N 50°46' E 000°53'1010.0
2017-Feb-25 20:32N 50°52' E 001°05'1010.4
2017-Feb-25 19:34N 50°59' E 001°17'1110.5
2017-Feb-25 18:34N 51°05' E 001°30'1010.2
2017-Feb-25 17:34N 51°12' E 001°42'9 9.1
2017-Feb-25 16:34N 51°19' E 001°51'8 7.9
2017-Feb-25 15:33N 51°25' E 002°00'8 8.5
2017-Feb-25 14:33N 51°22' E 002°13'8 7.8
2017-Feb-25 13:33N 51°22' E 002°26'8 8.3
2017-Feb-25 12:34N 51°23' E 002°39'8 8.4
2017-Feb-25 11:34N 51°22' E 002°52'9 9.1
2017-Feb-25 10:33N 51°22' E 003°07'9 9.3
2017-Feb-25 09:33N 51°24' E 003°21'9 9.5
2017-Feb-25 08:34N 51°26' E 003°36'10 9.9
2017-Feb-25 07:33N 51°20' E 003°49'0 0.4
2017-Feb-25 06:33N 51°20' E 003°49'4 3.7
2017-Feb-25 05:34N 51°16' E 003°50'6 6.1
2017-Feb-25 04:34N 51°10' E 003°48'5 5.3
2017-Feb-25 03:34N 51°05' E 003°44'0 0.0
2017-Feb-25 02:33N 51°05' E 003°44'0 0.0
2017-Feb-25 01:34N 51°05' E 003°44'0 0.0
2017-Feb-25 00:33N 51°05' E 003°44'0 0.0
2017-Feb-24 23:33N 51°05' E 003°44'0 0.0
2017-Feb-24 22:32N 51°05' E 003°44'0 0.0
2017-Feb-24 21:33N 51°05' E 003°44'0 0.0
2017-Feb-24 20:34N 51°05' E 003°44'0 0.0
2017-Feb-24 19:33N 51°05' E 003°44'0 0.0
2017-Feb-24 18:33N 51°05' E 003°44'0 0.0
2017-Feb-24 17:33N 51°05' E 003°44'0 0.0
2017-Feb-24 16:33N 51°05' E 003°44'0 0.0
2017-Feb-24 15:34N 51°05' E 003°44'0 0.0
2017-Feb-24 14:33N 51°05' E 003°44'0 0.0
2017-Feb-24 13:33N 51°05' E 003°44'0 0.0
2017-Feb-24 12:33N 51°05' E 003°44'0 0.3
2017-Feb-24 11:33N 51°05' E 003°44'0 0.0
2017-Feb-24 10:33N 51°05' E 003°44'0 0.0
2017-Feb-24 09:34N 51°05' E 003°44'0 0.0
2017-Feb-24 08:33N 51°05' E 003°44'0 0.0
2017-Feb-24 07:33N 51°05' E 003°44'0 0.0
2017-Feb-24 06:33N 51°05' E 003°44'0 0.0
2017-Feb-24 05:33N 51°05' E 003°44'0 0.0
2017-Feb-24 04:33N 51°05' E 003°44'0 0.0
2017-Feb-24 03:34N 51°05' E 003°44'0 0.0
2017-Feb-24 02:33N 51°05' E 003°44'0 0.0
2017-Feb-24 01:33N 51°05' E 003°44'0 0.0
2017-Feb-24 00:34N 51°05' E 003°44'0 0.0
2017-Feb-23 23:34N 51°05' E 003°44'0 0.0
2017-Feb-23 22:34N 51°05' E 003°44'0 0.0
2017-Feb-23 21:34N 51°05' E 003°44'0 0.0
2017-Feb-23 20:34N 51°05' E 003°44'0 0.0
2017-Feb-23 19:34N 51°05' E 003°44'0 0.0
2017-Feb-23 18:33N 51°05' E 003°44'0 0.0
2017-Feb-23 17:34N 51°05' E 003°44'0 0.0
2017-Feb-23 16:33N 51°05' E 003°44'0 0.0
2017-Feb-23 15:33N 51°05' E 003°44'0 0.0
2017-Feb-23 14:33N 51°05' E 003°44'0 0.0
2017-Feb-23 13:33N 51°05' E 003°44'0 0.0
2017-Feb-23 12:34N 51°05' E 003°44'0 0.0
2017-Feb-23 11:33N 51°05' E 003°44'0 0.0
2017-Feb-23 10:33N 51°05' E 003°44'0 0.0
2017-Feb-23 09:34N 51°05' E 003°44'0 0.0
2017-Feb-23 08:33N 51°05' E 003°44'0 0.0
2017-Feb-23 07:34N 51°05' E 003°44'0 0.0
2017-Feb-23 06:33N 51°05' E 003°44'0 0.0
2017-Feb-23 05:33N 51°05' E 003°44'0 0.0
2017-Feb-23 04:33N 51°05' E 003°44'0 0.0
2017-Feb-23 03:33N 51°05' E 003°44'0 0.0
2017-Feb-23 02:33N 51°05' E 003°44'0 0.0
2017-Feb-23 01:34N 51°05' E 003°44'0 0.0
2017-Feb-23 00:33N 51°05' E 003°44'0 0.0
2017-Feb-22 23:33N 51°05' E 003°44'0 0.0
2017-Feb-22 22:33N 51°05' E 003°44'0 0.0
2017-Feb-22 21:34N 51°05' E 003°44'0 0.0
2017-Feb-22 20:34N 51°05' E 003°44'0 0.0
2017-Feb-22 19:34N 51°05' E 003°44'0 0.0
2017-Feb-22 18:33N 51°05' E 003°44'0 0.0
2017-Feb-22 17:33N 51°05' E 003°44'0 0.0
2017-Feb-22 16:33N 51°05' E 003°44'0 0.0
2017-Feb-22 15:34N 51°05' E 003°44'0 0.0
2017-Feb-22 14:34N 51°05' E 003°44'0 0.0
2017-Feb-22 13:33N 51°05' E 003°44'0 0.0
2017-Feb-22 12:34N 51°05' E 003°44'0 0.0
2017-Feb-22 11:34N 51°05' E 003°44'0 0.0
2017-Feb-22 10:34N 51°05' E 003°44'0 0.0
2017-Feb-22 09:34N 51°05' E 003°44'0 0.0
2017-Feb-22 08:34N 51°05' E 003°44'0 0.0
2017-Feb-22 07:33N 51°05' E 003°44'0 0.0
2017-Feb-22 06:34N 51°05' E 003°44'0 0.0
2017-Feb-22 05:34N 51°05' E 003°44'0 0.0
2017-Feb-22 04:33N 51°05' E 003°44'0 0.0
2017-Feb-22 03:34N 51°05' E 003°44'0 0.0
2017-Feb-22 02:34N 51°05' E 003°44'0 0.0
2017-Feb-22 01:34N 51°05' E 003°44'0 0.0
2017-Feb-22 00:34N 51°05' E 003°44'0 0.0
2017-Feb-21 23:33N 51°05' E 003°44'0 0.0
2017-Feb-21 22:30N 51°05' E 003°44'1 0.7
2017-Feb-21 21:33N 51°06' E 003°44'1 0.8
2017-Feb-21 20:32N 51°05' E 003°45'0 0.0
2017-Feb-21 19:29N 51°05' E 003°45'0 0.0
2017-Feb-21 18:32N 51°05' E 003°45'0 0.0
2017-Feb-21 17:29N 51°05' E 003°45'0 0.0
2017-Feb-21 16:29N 51°05' E 003°45'0 0.0
2017-Feb-21 15:29N 51°05' E 003°45'0 0.0
2017-Feb-21 14:32N 51°05' E 003°45'0 0.0
2017-Feb-21 13:29N 51°05' E 003°45'0 0.0
2017-Feb-21 12:29N 51°05' E 003°45'0 0.0
2017-Feb-21 11:32N 51°05' E 003°45'0 0.0
2017-Feb-21 10:32N 51°05' E 003°45'0 0.0
2017-Feb-21 09:32N 51°05' E 003°45'0 0.0
2017-Feb-21 08:32N 51°05' E 003°45'0 0.0
2017-Feb-21 07:32N 51°05' E 003°45'0 0.0
2017-Feb-21 06:29N 51°05' E 003°45'0 0.0
2017-Feb-21 05:29N 51°05' E 003°45'0 0.0
2017-Feb-21 04:29N 51°05' E 003°45'0 0.4
2017-Feb-21 03:31N 51°06' E 003°45'0 0.0
2017-Feb-21 02:31N 51°06' E 003°45'0 0.0
2017-Feb-21 01:28N 51°06' E 003°45'0 0.0
2017-Feb-21 00:31N 51°06' E 003°45'0 0.0
2017-Feb-20 23:31N 51°06' E 003°45'0 0.0
2017-Feb-20 22:31N 51°06' E 003°45'0 0.0
2017-Feb-20 21:22N 51°06' E 003°45'0 0.0
2017-Feb-20 20:31N 51°06' E 003°45'0 0.0
2017-Feb-20 19:31N 51°06' E 003°45'0 0.0
2017-Feb-20 18:25N 51°06' E 003°45'0 0.0
2017-Feb-20 17:31N 51°06' E 003°45'0 0.0
2017-Feb-20 16:31N 51°06' E 003°45'0 0.0
2017-Feb-20 15:28N 51°06' E 003°45'0 0.0
2017-Feb-20 14:31N 51°06' E 003°45'0 0.0
2017-Feb-20 13:28N 51°06' E 003°45'0 0.0
2017-Feb-20 12:31N 51°06' E 003°45'0 0.0
2017-Feb-20 11:25N 51°06' E 003°45'0 0.0
2017-Feb-20 10:31N 51°06' E 003°45'0 0.0
2017-Feb-20 09:31N 51°06' E 003°45'0 0.0
2017-Feb-20 08:31N 51°06' E 003°45'0 0.0
2017-Feb-20 07:31N 51°06' E 003°45'0 0.0
2017-Feb-20 06:28N 51°06' E 003°45'0 0.0
2017-Feb-20 05:28N 51°06' E 003°45'0 0.0
2017-Feb-20 04:28N 51°06' E 003°45'0 0.0
2017-Feb-20 03:25N 51°06' E 003°45'0 0.0
2017-Feb-20 02:28N 51°06' E 003°45'0 0.0
2017-Feb-20 01:28N 51°06' E 003°45'0 0.0
2017-Feb-20 00:28N 51°06' E 003°45'0 0.0
2017-Feb-19 23:28N 51°06' E 003°45'0 0.0
2017-Feb-19 22:31N 51°06' E 003°45'0 0.0
2017-Feb-19 21:31N 51°06' E 003°45'0 0.0
2017-Feb-19 20:31N 51°06' E 003°45'0 0.0
2017-Feb-19 19:31N 51°06' E 003°45'0 0.0
2017-Feb-19 18:31N 51°06' E 003°45'0 0.0
2017-Feb-19 17:31N 51°06' E 003°45'0 0.0
2017-Feb-19 16:31N 51°06' E 003°45'0 0.0
2017-Feb-19 15:31N 51°06' E 003°45'0 0.0
2017-Feb-19 14:28N 51°06' E 003°45'0 0.0
2017-Feb-19 13:25N 51°06' E 003°45'0 0.0
2017-Feb-19 12:28N 51°06' E 003°45'0 0.0
2017-Feb-19 11:28N 51°06' E 003°45'0 0.0
2017-Feb-19 10:28N 51°06' E 003°45'0 0.0
2017-Feb-19 09:28N 51°06' E 003°45'0 0.0
2017-Feb-19 08:28N 51°06' E 003°45'0 0.0
2017-Feb-19 07:28N 51°06' E 003°45'0 0.0
2017-Feb-19 06:31N 51°06' E 003°45'0 0.0
2017-Feb-19 05:31N 51°06' E 003°45'0 0.0
2017-Feb-19 04:31N 51°06' E 003°45'0 0.0
2017-Feb-19 03:31N 51°06' E 003°45'0 0.0
2017-Feb-19 02:31N 51°06' E 003°45'0 0.0
2017-Feb-19 01:28N 51°06' E 003°45'0 0.0
2017-Feb-19 00:31N 51°06' E 003°45'0 0.0
2017-Feb-18 23:31N 51°06' E 003°45'0 0.0
2017-Feb-18 22:31N 51°06' E 003°45'0 0.0
2017-Feb-18 21:28N 51°06' E 003°45'0 0.0
2017-Feb-18 20:28N 51°06' E 003°45'0 0.0
2017-Feb-18 19:31N 51°06' E 003°45'0 0.0
2017-Feb-18 18:31N 51°06' E 003°45'0 0.0
2017-Feb-18 17:31N 51°06' E 003°45'4 3.9
2017-Feb-18 16:33N 51°09' E 003°47'8 8.1
2017-Feb-18 15:33N 51°17' E 003°50'3 2.7
2017-Feb-18 14:33N 51°20' E 003°49'6 6.0
2017-Feb-18 13:34N 51°24' E 003°42'5 4.6
2017-Feb-18 12:30N 51°25' E 003°34'0 0.0
2017-Feb-18 11:30N 51°25' E 003°34'0 0.0
2017-Feb-18 10:24N 51°25' E 003°34'0 0.0
2017-Feb-18 09:30N 51°25' E 003°34'0 0.0
2017-Feb-18 08:30N 51°25' E 003°34'0 0.1
2017-Feb-18 07:33N 51°25' E 003°34'9 8.6
2017-Feb-18 06:34N 51°24' E 003°21'1211.9
2017-Feb-18 05:33N 51°22' E 003°02'1211.5
2017-Feb-18 04:33N 51°22' E 002°43'6 5.8
2017-Feb-18 03:32N 51°20' E 002°34'0 0.1
2017-Feb-18 02:20N 51°20' E 002°34'0 0.0
2017-Feb-18 01:32N 51°20' E 002°34'0 0.1
2017-Feb-18 00:27N 51°20' E 002°34'5 6.0
2017-Feb-17 23:33N 51°21' E 002°25'7 6.8
2017-Feb-17 22:33N 51°18' E 002°16'8 7.5
2017-Feb-17 21:33N 51°21' E 002°04'10 9.7
2017-Feb-17 20:33N 51°26' E 001°51'10 9.9
2017-Feb-17 19:34N 51°29' E 001°36'1211.5
2017-Feb-17 18:29N 51°29' E 001°16'1212.7
2017-Feb-17 17:32N 51°29' E 000°57'9 9.4
2017-Feb-17 16:33N 51°25' E 000°43'  

Dump ship's entire track history